createdAt,value
2023-04-08T00:00:47.218Z,7.90
2023-04-08T00:03:14.098Z,8.20
2023-04-08T00:05:41.090Z,8.90
2023-04-08T00:08:07.844Z,8.30
2023-04-08T00:10:34.515Z,8.40
2023-04-08T00:13:01.340Z,9.00
2023-04-08T00:15:27.965Z,8.80
2023-04-08T00:17:54.767Z,8.60
2023-04-08T00:20:24.051Z,9.00
2023-04-08T00:22:50.734Z,9.00
2023-04-08T00:25:17.499Z,9.90
2023-04-08T00:27:44.218Z,8.70
2023-04-08T00:30:11.742Z,7.80
2023-04-08T00:32:38.785Z,8.30
2023-04-08T00:35:05.773Z,8.70
2023-04-08T00:37:32.834Z,8.70
2023-04-08T00:39:59.421Z,9.40
2023-04-08T00:42:26.615Z,8.90
2023-04-08T00:44:53.293Z,8.30
2023-04-08T00:47:19.986Z,8.70
2023-04-08T00:49:46.630Z,9.30
2023-04-08T00:52:13.725Z,9.40
2023-04-08T00:54:42.249Z,10.20
2023-04-08T00:57:09.089Z,10.00
2023-04-08T00:59:36.320Z,9.90
2023-04-08T01:02:21.872Z,10.50
2023-04-08T01:05:06.935Z,10.40
2023-04-08T01:07:41.356Z,11.10
2023-04-08T01:10:15.430Z,10.00
2023-04-08T01:12:48.514Z,10.10
2023-04-08T01:15:16.013Z,10.00
2023-04-08T01:17:44.773Z,11.10
2023-04-08T01:20:13.883Z,10.20
2023-04-08T01:23:13.309Z,10.30
2023-04-08T01:25:40.482Z,10.80
2023-04-08T01:28:15.751Z,10.60
2023-04-08T01:30:44.946Z,11.00
2023-04-08T01:33:14.531Z,10.30
2023-04-08T01:35:41.774Z,11.20
2023-04-08T01:38:11.243Z,9.70
2023-04-08T01:40:39.642Z,10.00
2023-04-08T01:43:08.884Z,9.20
2023-04-08T01:45:35.639Z,11.00
2023-04-08T01:48:03.741Z,10.90
2023-04-08T01:50:32.166Z,11.70
2023-04-08T01:53:01.168Z,10.90
2023-04-08T01:55:29.338Z,10.30
2023-04-08T01:57:59.757Z,11.40
2023-04-08T02:00:31.783Z,11.00
2023-04-08T02:03:00.913Z,11.00
2023-04-08T02:05:27.779Z,12.30
2023-04-08T02:07:54.501Z,11.50
2023-04-08T02:10:21.370Z,10.90
2023-04-08T02:12:48.372Z,11.60
2023-04-08T02:15:15.818Z,12.10
2023-04-08T02:17:51.110Z,11.80
2023-04-08T02:20:24.453Z,11.80
2023-04-08T02:23:03.735Z,11.80
2023-04-08T02:25:32.186Z,12.30
2023-04-08T02:28:01.527Z,11.80
2023-04-08T02:30:29.814Z,11.90
2023-04-08T02:32:58.186Z,10.90
2023-04-08T02:35:26.017Z,10.40
2023-04-08T02:37:52.683Z,11.20
2023-04-08T02:40:31.201Z,9.70
2023-04-08T02:42:59.061Z,11.00
2023-04-08T02:45:35.776Z,12.50
2023-04-08T02:48:02.555Z,10.60
2023-04-08T02:50:29.338Z,11.60
2023-04-08T02:52:56.234Z,10.40
2023-04-08T02:55:23.086Z,10.60
2023-04-08T02:57:50.264Z,11.20
2023-04-08T03:00:17.275Z,11.10
2023-04-08T03:02:44.097Z,10.40
2023-04-08T03:05:11.594Z,11.30
2023-04-08T03:07:38.712Z,11.20
2023-04-08T03:10:06.238Z,11.80
2023-04-08T03:12:33.138Z,12.30
2023-04-08T03:15:01.016Z,10.40
2023-04-08T03:17:27.857Z,10.60
2023-04-08T03:19:54.681Z,10.40
2023-04-08T03:22:21.370Z,9.80
2023-04-08T03:24:48.001Z,10.40
2023-04-08T03:27:14.642Z,10.30
2023-04-08T03:29:41.490Z,10.00
2023-04-08T03:32:08.438Z,10.60
2023-04-08T03:34:35.610Z,9.90
2023-04-08T03:37:02.675Z,9.70
2023-04-08T03:39:29.348Z,10.70
2023-04-08T03:41:55.982Z,9.90
2023-04-08T03:44:22.785Z,9.70
2023-04-08T03:46:49.431Z,10.10
2023-04-08T03:49:16.326Z,10.80
2023-04-08T03:51:42.921Z,10.00
2023-04-08T03:54:09.565Z,9.70
2023-04-08T03:56:36.180Z,9.60
2023-04-08T03:59:03.004Z,9.60
2023-04-08T04:01:32.144Z,10.10
2023-04-08T04:03:59.007Z,10.80
2023-04-08T04:06:26.652Z,9.90
2023-04-08T04:08:54.970Z,11.00
2023-04-08T04:11:22.937Z,9.60
2023-04-08T04:13:49.627Z,11.30
2023-04-08T04:16:16.489Z,10.80
2023-04-08T04:18:43.278Z,10.20
2023-04-08T04:21:10.396Z,9.70
2023-04-08T04:23:37.110Z,9.80
2023-04-08T04:26:12.781Z,11.40
2023-04-08T04:28:39.456Z,10.70
2023-04-08T04:31:06.155Z,10.60
2023-04-08T04:33:32.817Z,10.40
2023-04-08T04:35:59.534Z,10.60
2023-04-08T04:38:27.199Z,10.30
2023-04-08T04:40:54.022Z,11.10
2023-04-08T04:43:20.634Z,11.70
2023-04-08T04:45:47.411Z,12.00
2023-04-08T04:48:14.342Z,10.50
2023-04-08T04:50:41.323Z,10.30
2023-04-08T04:53:07.963Z,9.30
2023-04-08T04:55:34.579Z,11.00
2023-04-08T04:58:01.879Z,10.50
2023-04-08T05:00:28.560Z,10.90
2023-04-08T05:02:55.682Z,10.00
2023-04-08T05:05:22.704Z,10.10
2023-04-08T05:07:49.605Z,10.80
2023-04-08T05:10:16.263Z,11.20
2023-04-08T05:12:42.854Z,10.30
2023-04-08T05:15:09.827Z,9.70
2023-04-08T05:17:36.586Z,10.80
2023-04-08T05:20:03.414Z,10.60
2023-04-08T05:22:30.210Z,9.20
2023-04-08T05:24:56.799Z,9.90
2023-04-08T05:27:23.504Z,9.30
2023-04-08T05:29:50.127Z,9.80
2023-04-08T05:32:17.176Z,10.20
2023-04-08T05:34:44.341Z,9.90
2023-04-08T05:37:11.590Z,10.00
2023-04-08T05:39:38.256Z,10.00
2023-04-08T05:42:05.010Z,10.20
2023-04-08T05:44:31.618Z,10.80
2023-04-08T05:46:58.452Z,10.50
2023-04-08T05:49:25.441Z,10.90
2023-04-08T05:51:52.075Z,10.30
2023-04-08T05:54:18.636Z,9.50
2023-04-08T05:56:46.486Z,9.20
2023-04-08T05:59:13.171Z,10.10
2023-04-08T06:01:39.944Z,10.20
2023-04-08T06:04:07.158Z,10.00
2023-04-08T06:06:34.100Z,10.60
2023-04-08T06:09:00.804Z,10.30
2023-04-08T06:11:27.376Z,11.10
2023-04-08T06:13:54.069Z,10.50
2023-04-08T06:16:21.361Z,10.90
2023-04-08T06:18:49.244Z,11.50
2023-04-08T06:21:16.278Z,10.80
2023-04-08T06:23:42.941Z,11.90
2023-04-08T06:26:09.590Z,10.40
2023-04-08T06:28:36.352Z,11.50
2023-04-08T06:31:03.028Z,11.60
2023-04-08T06:33:29.737Z,11.00
2023-04-08T06:36:04.070Z,10.20
2023-04-08T06:38:32.069Z,11.10
2023-04-08T06:41:06.639Z,11.10
2023-04-08T06:43:34.434Z,10.90
2023-04-08T06:46:01.352Z,10.60
2023-04-08T06:48:30.226Z,11.30
2023-04-08T06:50:58.126Z,11.10
2023-04-08T06:53:25.601Z,11.20
2023-04-08T06:55:52.386Z,11.90
2023-04-08T06:58:19.031Z,11.30
2023-04-08T07:00:45.689Z,11.40
2023-04-08T07:03:12.609Z,10.60
2023-04-08T07:05:39.558Z,10.40
2023-04-08T07:08:06.717Z,11.20
2023-04-08T07:10:35.379Z,9.50
2023-04-08T07:13:02.482Z,11.90
2023-04-08T07:15:29.127Z,12.70
2023-04-08T07:17:59.778Z,12.40
2023-04-08T07:20:26.638Z,10.60
2023-04-08T07:22:53.515Z,12.40
2023-04-08T07:25:20.222Z,12.60
2023-04-08T07:27:46.884Z,10.50
2023-04-08T07:30:14.004Z,13.10
2023-04-08T07:32:41.149Z,11.40
2023-04-08T07:35:08.308Z,10.80
2023-04-08T07:37:35.133Z,12.10
2023-04-08T07:40:02.028Z,11.30
2023-04-08T07:42:29.085Z,13.10
2023-04-08T07:44:55.808Z,14.50
2023-04-08T07:47:22.564Z,13.60
2023-04-08T07:49:49.408Z,14.00
2023-04-08T07:52:16.173Z,12.80
2023-04-08T07:54:42.791Z,12.70
2023-04-08T07:57:09.418Z,15.10
2023-04-08T07:59:36.432Z,13.90
2023-04-08T08:02:03.462Z,14.40
2023-04-08T08:04:30.549Z,14.30
2023-04-08T08:06:57.177Z,13.80
2023-04-08T08:09:23.857Z,13.70
2023-04-08T08:11:50.436Z,15.60
2023-04-08T08:14:17.132Z,14.60
2023-04-08T08:16:44.686Z,13.10
2023-04-08T08:19:12.559Z,15.30
2023-04-08T08:21:42.061Z,15.00
2023-04-08T08:24:08.706Z,13.30
2023-04-08T08:26:39.400Z,16.50
2023-04-08T08:29:08.885Z,13.90
2023-04-08T08:31:35.880Z,16.60
2023-04-08T08:34:03.106Z,13.00
2023-04-08T08:36:29.796Z,13.90
2023-04-08T08:38:56.440Z,16.40
2023-04-08T08:41:23.207Z,15.40
2023-04-08T08:43:50.189Z,18.00
2023-04-08T08:46:19.377Z,16.40
2023-04-08T08:48:46.622Z,13.80
2023-04-08T08:51:13.878Z,16.10
2023-04-08T08:53:45.525Z,16.40
2023-04-08T08:58:42.043Z,15.10
2023-04-08T09:01:34.461Z,13.90
2023-04-08T09:04:16.486Z,14.50
2023-04-08T09:06:48.979Z,14.20
2023-04-08T09:09:15.747Z,17.50
2023-04-08T09:11:44.890Z,15.50
2023-04-08T09:14:25.803Z,14.60
2023-04-08T09:16:53.314Z,13.90
2023-04-08T09:19:20.399Z,13.10
2023-04-08T09:22:05.281Z,16.00
2023-04-08T09:24:32.190Z,16.70
2023-04-08T09:26:58.930Z,14.00
2023-04-08T09:29:33.345Z,15.80
2023-04-08T09:32:01.763Z,15.40
2023-04-08T09:34:29.869Z,16.10
2023-04-08T09:36:56.753Z,16.20
2023-04-08T09:39:24.394Z,14.20
2023-04-08T09:41:52.645Z,15.60
2023-04-08T09:44:21.770Z,15.30
2023-04-08T09:46:51.749Z,16.40
2023-04-08T09:49:34.199Z,16.10
2023-04-08T09:52:03.660Z,12.50
2023-04-08T09:54:49.331Z,17.10
2023-04-08T09:57:28.641Z,13.70
2023-04-08T10:00:05.938Z,17.40
2023-04-08T10:03:01.170Z,16.00
2023-04-08T10:05:28.157Z,16.20
2023-04-08T10:07:56.548Z,14.70
2023-04-08T10:10:24.615Z,15.60
2023-04-08T10:12:51.561Z,16.30
2023-04-08T10:15:27.754Z,15.60
2023-04-08T10:18:19.172Z,16.60
2023-04-08T10:20:47.696Z,15.40
2023-04-08T10:23:16.708Z,14.10
2023-04-08T10:25:45.417Z,13.10
2023-04-08T10:28:12.377Z,15.20
2023-04-08T10:30:41.063Z,10.50
2023-04-08T10:33:30.216Z,14.40
2023-04-08T10:36:11.644Z,14.30
2023-04-08T10:38:39.505Z,15.70
2023-04-08T10:41:06.321Z,14.90
2023-04-08T10:43:37.914Z,15.30
2023-04-08T10:46:05.171Z,14.40
2023-04-08T10:48:31.950Z,15.10
2023-04-08T10:51:01.164Z,14.90
2023-04-08T10:53:33.432Z,13.70
2023-04-08T10:56:07.888Z,15.30
2023-04-08T10:58:36.642Z,13.90
2023-04-08T11:01:07.960Z,14.50
2023-04-08T11:03:37.290Z,12.20
2023-04-08T11:06:04.974Z,14.40
2023-04-08T11:08:33.381Z,12.10
2023-04-08T11:11:04.482Z,10.90
2023-04-08T11:13:31.834Z,11.80
2023-04-08T11:16:00.391Z,11.00
2023-04-08T11:18:27.497Z,11.70
2023-04-08T11:20:54.628Z,9.60
2023-04-08T11:23:23.079Z,10.50
2023-04-08T11:25:50.850Z,9.40
2023-04-08T11:28:18.396Z,8.20
2023-04-08T11:30:45.500Z,8.40
2023-04-08T11:33:13.498Z,9.40
2023-04-08T11:35:41.794Z,9.40
2023-04-08T11:38:09.705Z,9.10
2023-04-08T11:40:36.526Z,8.80
2023-04-08T11:43:11.035Z,8.20
2023-04-08T11:45:41.272Z,8.60
2023-04-08T11:48:12.493Z,9.10
2023-04-08T11:50:39.197Z,8.80
2023-04-08T11:53:18.158Z,7.60
2023-04-08T11:55:44.774Z,8.60
2023-04-08T11:58:11.457Z,8.60
2023-04-08T12:00:38.617Z,10.20
2023-04-08T12:03:06.514Z,8.70
2023-04-08T12:05:33.947Z,6.10
2023-04-08T12:08:00.578Z,8.30
2023-04-08T12:10:27.241Z,9.20
2023-04-08T12:12:53.957Z,8.90
2023-04-08T12:15:20.745Z,8.80
2023-04-08T12:17:47.765Z,8.60
2023-04-08T12:20:14.506Z,8.60
2023-04-08T12:22:41.214Z,8.40
2023-04-08T12:25:08.092Z,7.40
2023-04-08T12:27:34.788Z,8.00
2023-04-08T12:30:02.552Z,6.90
2023-04-08T12:32:29.226Z,7.90
2023-04-08T12:34:56.177Z,8.40
2023-04-08T12:37:22.789Z,7.70
2023-04-08T12:39:50.089Z,9.20
2023-04-08T12:42:16.827Z,9.50
2023-04-08T12:44:43.545Z,9.60
2023-04-08T12:47:10.375Z,9.40
2023-04-08T12:49:48.926Z,9.20
2023-04-08T12:52:17.358Z,8.50
2023-04-08T12:54:44.421Z,8.00
2023-04-08T12:57:11.344Z,7.60
2023-04-08T12:59:39.985Z,9.20
2023-04-08T13:02:07.951Z,7.90
2023-04-08T13:04:34.893Z,9.30
2023-04-08T13:07:01.620Z,8.70
2023-04-08T13:09:29.969Z,9.10
2023-04-08T13:11:56.580Z,8.40
2023-04-08T13:14:23.222Z,8.40
2023-04-08T13:16:49.911Z,8.60
2023-04-08T13:19:16.675Z,8.40
2023-04-08T13:21:45.529Z,8.60
2023-04-08T13:24:12.765Z,7.50
2023-04-08T13:26:39.383Z,7.80
2023-04-08T13:29:06.829Z,8.80
2023-04-08T13:31:33.663Z,8.20
2023-04-08T13:34:00.269Z,8.80
2023-04-08T13:36:28.926Z,8.10
2023-04-08T13:38:56.518Z,8.00
2023-04-08T13:41:23.522Z,7.20
2023-04-08T13:43:50.526Z,7.10
2023-04-08T13:46:18.283Z,7.80
2023-04-08T13:48:46.057Z,7.70
2023-04-08T13:51:12.720Z,7.70
2023-04-08T13:53:39.405Z,7.10
2023-04-08T13:56:06.380Z,7.50
2023-04-08T13:58:33.001Z,7.30
2023-04-08T14:00:59.641Z,6.60
2023-04-08T14:03:26.622Z,6.80
2023-04-08T14:05:53.805Z,5.70
2023-04-08T14:08:25.388Z,6.40
2023-04-08T14:10:53.318Z,6.40
2023-04-08T14:13:20.411Z,6.40
2023-04-08T14:15:48.204Z,4.80
2023-04-08T14:18:17.515Z,5.70
2023-04-08T14:20:44.402Z,6.10
2023-04-08T14:23:11.637Z,5.90
2023-04-08T14:25:38.419Z,5.00
2023-04-08T14:28:05.159Z,5.30
2023-04-08T14:30:31.846Z,4.80
2023-04-08T14:32:59.492Z,3.80
2023-04-08T14:35:26.143Z,5.20
2023-04-08T14:37:52.773Z,4.40
2023-04-08T14:40:19.419Z,3.80
2023-04-08T14:42:46.353Z,4.10
2023-04-08T14:45:13.392Z,4.50
2023-04-08T14:47:40.092Z,4.10
2023-04-08T14:50:07.751Z,5.20
2023-04-08T14:52:34.420Z,4.70
2023-04-08T14:55:01.055Z,3.90
2023-04-08T14:57:27.677Z,4.00
2023-04-08T14:59:54.426Z,4.10
2023-04-08T15:02:21.350Z,3.60
2023-04-08T15:04:48.106Z,3.60
2023-04-08T15:07:14.756Z,3.90
2023-04-08T15:09:42.006Z,4.60
2023-04-08T15:12:08.653Z,4.20
2023-04-08T15:14:35.330Z,3.70
2023-04-08T15:17:01.932Z,4.60
2023-04-08T15:19:28.563Z,4.40
2023-04-08T15:21:55.389Z,4.00
2023-04-08T15:24:22.119Z,4.40
2023-04-08T15:26:48.808Z,4.00
2023-04-08T15:29:15.589Z,3.70
2023-04-08T15:31:42.396Z,4.00
2023-04-08T15:34:09.099Z,4.90
2023-04-08T15:36:37.445Z,5.00
2023-04-08T15:39:04.327Z,4.70
2023-04-08T15:41:32.454Z,5.90
2023-04-08T15:43:59.190Z,4.80
2023-04-08T15:46:25.890Z,5.00
2023-04-08T15:48:52.858Z,6.80
2023-04-08T15:51:20.404Z,6.00
2023-04-08T15:53:47.651Z,7.60
2023-04-08T15:56:16.370Z,7.10
2023-04-08T15:58:44.033Z,7.20
2023-04-08T16:01:11.345Z,8.20
2023-04-08T16:03:38.888Z,7.90
2023-04-08T16:06:06.288Z,7.70
2023-04-08T16:08:34.790Z,7.70
2023-04-08T16:11:03.372Z,6.20
2023-04-08T16:13:30.960Z,7.30
2023-04-08T16:15:58.532Z,9.10
2023-04-08T16:18:26.119Z,8.70
2023-04-08T16:20:53.109Z,8.80
2023-04-08T16:23:19.951Z,7.80
2023-04-08T16:25:47.071Z,9.00
2023-04-08T16:28:14.343Z,9.10
2023-04-08T16:30:44.053Z,9.10
2023-04-08T16:33:13.804Z,8.20
2023-04-08T16:35:40.461Z,8.80
2023-04-08T16:38:07.168Z,9.40
2023-04-08T16:40:34.660Z,9.40
2023-04-08T16:43:01.849Z,10.80
2023-04-08T16:45:30.041Z,9.50
2023-04-08T16:47:57.473Z,8.60
2023-04-08T16:50:24.780Z,8.20
2023-04-08T16:52:51.702Z,9.50
2023-04-08T16:55:19.673Z,8.00
2023-04-08T16:57:46.663Z,10.90
2023-04-08T17:00:13.941Z,10.70
2023-04-08T17:02:40.873Z,8.80
2023-04-08T17:05:08.245Z,8.90
2023-04-08T17:07:34.904Z,8.90
2023-04-08T17:10:01.610Z,8.70
2023-04-08T17:12:28.351Z,8.30
2023-04-08T17:14:54.952Z,9.70
2023-04-08T17:17:21.684Z,9.20
2023-04-08T17:19:48.582Z,9.10
2023-04-08T17:22:15.272Z,8.70
2023-04-08T17:24:41.925Z,9.20
2023-04-08T17:27:08.576Z,8.80
2023-04-08T17:29:35.844Z,8.10
2023-04-08T17:32:02.726Z,8.60
2023-04-08T17:34:31.368Z,11.00
2023-04-08T17:36:58.061Z,18.40
2023-04-08T17:39:24.858Z,31.00
2023-04-08T17:41:51.472Z,11.00
2023-04-08T17:44:18.080Z,10.50
2023-04-08T17:46:44.640Z,11.00
2023-04-08T17:49:12.881Z,8.90
2023-04-08T17:51:39.862Z,8.90
2023-04-08T17:54:06.527Z,8.50
2023-04-08T17:56:33.487Z,7.30
2023-04-08T17:59:00.398Z,7.70
2023-04-08T18:01:27.124Z,6.90
2023-04-08T18:03:54.826Z,7.20
2023-04-08T18:06:21.868Z,8.30
2023-04-08T18:08:48.758Z,9.70
2023-04-08T18:11:15.594Z,8.50
2023-04-08T18:13:42.209Z,8.40
2023-04-08T18:16:17.362Z,8.80
2023-04-08T18:18:44.594Z,8.90
2023-04-08T18:21:11.258Z,8.60
2023-04-08T18:23:37.946Z,9.30
2023-04-08T18:26:04.629Z,9.00
2023-04-08T18:28:31.652Z,8.60
2023-04-08T18:30:58.355Z,8.40
2023-04-08T18:33:25.755Z,8.10
2023-04-08T18:35:52.797Z,9.00
2023-04-08T18:38:19.593Z,8.50
2023-04-08T18:40:46.737Z,9.90
2023-04-08T18:43:13.808Z,9.40
2023-04-08T18:45:41.321Z,13.70
2023-04-08T18:48:08.535Z,9.10
2023-04-08T18:50:35.306Z,8.60
2023-04-08T18:53:02.337Z,8.50
2023-04-08T18:55:28.993Z,8.50
2023-04-08T18:57:55.744Z,8.50
2023-04-08T19:00:22.450Z,8.90
2023-04-08T19:02:49.229Z,8.10
2023-04-08T19:05:16.953Z,9.10
2023-04-08T19:07:43.619Z,8.30
2023-04-08T19:10:10.513Z,8.40
2023-04-08T19:12:37.230Z,9.70
2023-04-08T19:15:04.739Z,9.40
2023-04-08T19:17:31.731Z,8.60
2023-04-08T19:19:58.852Z,8.80
2023-04-08T19:22:25.957Z,8.70
2023-04-08T19:24:54.940Z,9.50
2023-04-08T19:27:22.707Z,8.30
2023-04-08T19:29:49.941Z,9.50
2023-04-08T19:32:16.738Z,10.20
2023-04-08T19:34:43.380Z,8.70
2023-04-08T19:37:10.731Z,10.60
2023-04-08T19:39:38.433Z,9.70
2023-04-08T19:42:06.268Z,8.80
2023-04-08T19:44:34.530Z,8.60
2023-04-08T19:47:01.394Z,8.20
2023-04-08T19:49:29.469Z,9.50
2023-04-08T19:51:57.230Z,8.70
2023-04-08T19:54:23.998Z,9.70
2023-04-08T19:56:51.441Z,9.40
2023-04-08T19:59:19.422Z,9.10
2023-04-08T20:01:46.192Z,8.20
2023-04-08T20:04:14.258Z,8.80
2023-04-08T20:06:41.167Z,9.80
2023-04-08T20:09:07.905Z,8.60
2023-04-08T20:11:34.760Z,8.20
2023-04-08T20:14:01.594Z,8.50
2023-04-08T20:16:28.375Z,8.60
2023-04-08T20:18:55.426Z,8.90
2023-04-08T20:21:22.591Z,9.10
2023-04-08T20:23:49.343Z,9.10
2023-04-08T20:26:16.939Z,9.40
2023-04-08T20:28:45.848Z,9.10
2023-04-08T20:31:13.535Z,9.10
2023-04-08T20:33:44.229Z,8.40
2023-04-08T20:36:14.255Z,8.00
2023-04-08T20:38:41.253Z,8.20
2023-04-08T20:41:08.009Z,8.90
2023-04-08T20:43:34.909Z,7.90
2023-04-08T20:46:01.536Z,8.40
2023-04-08T20:48:29.764Z,7.70
2023-04-08T20:50:57.611Z,8.50
2023-04-08T20:53:24.748Z,7.90
2023-04-08T20:55:51.925Z,7.90
2023-04-08T20:58:18.576Z,8.20
2023-04-08T21:00:47.784Z,7.50
2023-04-08T21:03:15.317Z,7.50
2023-04-08T21:05:42.552Z,8.20
2023-04-08T21:08:09.499Z,7.10
2023-04-08T21:10:36.140Z,6.90
2023-04-08T21:13:02.812Z,7.10
2023-04-08T21:15:29.757Z,7.50
2023-04-08T21:17:56.526Z,7.40
2023-04-08T21:20:23.547Z,6.70
2023-04-08T21:22:50.323Z,7.00
2023-04-08T21:25:18.083Z,6.90
2023-04-08T21:27:44.794Z,7.00
2023-04-08T21:30:11.689Z,6.10
2023-04-08T21:32:38.887Z,6.60
2023-04-08T21:35:05.811Z,6.30
2023-04-08T21:37:32.521Z,6.20
2023-04-08T21:39:59.074Z,6.90
2023-04-08T21:42:26.335Z,8.00
2023-04-08T21:44:53.455Z,7.00
2023-04-08T21:47:20.064Z,6.60
2023-04-08T21:49:46.790Z,6.30
2023-04-08T21:52:13.357Z,6.40
2023-04-08T21:54:40.068Z,6.00
2023-04-08T21:57:06.968Z,5.80
2023-04-08T21:59:33.561Z,6.90
2023-04-08T22:02:00.411Z,6.80
2023-04-08T22:04:27.806Z,7.10
2023-04-08T22:06:54.643Z,6.70
2023-04-08T22:09:21.630Z,7.10
2023-04-08T22:11:48.334Z,6.10
2023-04-08T22:14:15.765Z,6.60
2023-04-08T22:16:43.066Z,6.80
2023-04-08T22:19:09.773Z,6.60
2023-04-08T22:21:36.643Z,6.90
2023-04-08T22:24:03.494Z,5.80
2023-04-08T22:26:30.604Z,6.00
2023-04-08T22:28:57.249Z,6.20
2023-04-08T22:31:24.001Z,6.60
2023-04-08T22:33:50.825Z,6.50
2023-04-08T22:36:17.398Z,6.60
2023-04-08T22:38:44.015Z,6.70
2023-04-08T22:41:20.997Z,6.70
2023-04-08T22:43:48.076Z,6.60
2023-04-08T22:46:15.460Z,6.20
2023-04-08T22:48:42.109Z,5.60
2023-04-08T22:51:09.280Z,6.00
2023-04-08T22:53:36.735Z,6.10
2023-04-08T22:56:04.108Z,6.20
2023-04-08T22:58:31.133Z,6.50
2023-04-08T23:00:58.393Z,5.60
2023-04-08T23:03:25.239Z,5.60
2023-04-08T23:05:51.920Z,5.80
2023-04-08T23:08:18.565Z,5.50
2023-04-08T23:10:45.276Z,5.70
2023-04-08T23:13:14.041Z,5.60
2023-04-08T23:15:40.901Z,4.70
2023-04-08T23:18:07.597Z,5.60
2023-04-08T23:20:35.558Z,4.80
2023-04-08T23:23:03.531Z,5.30
2023-04-08T23:25:30.891Z,4.70
2023-04-08T23:27:57.601Z,4.70
2023-04-08T23:30:24.228Z,5.30
2023-04-08T23:32:50.942Z,5.40
2023-04-08T23:35:17.760Z,4.80
2023-04-08T23:37:44.430Z,4.30
2023-04-08T23:40:11.241Z,4.40
2023-04-08T23:42:37.819Z,4.40
2023-04-08T23:45:05.912Z,3.60
2023-04-08T23:47:32.529Z,3.30
2023-04-08T23:49:59.230Z,3.20
2023-04-08T23:52:26.135Z,3.40
2023-04-08T23:54:52.812Z,3.10
2023-04-08T23:57:22.331Z,3.50
2023-04-08T23:59:49.020Z,3.80
